sensor_id;sensor_type;location;lat;lon;timestamp;pressure;altitude;pressure_sealevel;temperature;humidity
27888;BME280;15237;49.608;7.170;2022-10-31T00:00:01;982.22;;;22.31;42.32
27888;BME280;15237;49.608;7.170;2022-10-31T00:00:39;982.26;;;22.32;42.32
27888;BME280;15237;49.608;7.170;2022-10-31T00:01:19;982.26;;;22.31;42.30
27888;BME280;15237;49.608;7.170;2022-10-31T00:02:06;982.27;;;22.33;42.28
27888;BME280;15237;49.608;7.170;2022-10-31T00:02:43;982.28;;;22.34;42.23
27888;BME280;15237;49.608;7.170;2022-10-31T00:03:21;982.29;;;22.34;42.27
27888;BME280;15237;49.608;7.170;2022-10-31T00:04:00;982.29;;;22.33;42.26
27888;BME280;15237;49.608;7.170;2022-10-31T00:04:38;982.30;;;22.32;42.28
27888;BME280;15237;49.608;7.170;2022-10-31T00:05:15;982.29;;;22.32;42.33
27888;BME280;15237;49.608;7.170;2022-10-31T00:05:55;982.30;;;22.32;42.30
27888;BME280;15237;49.608;7.170;2022-10-31T00:06:33;982.31;;;22.31;42.35
27888;BME280;15237;49.608;7.170;2022-10-31T00:07:10;982.29;;;22.30;42.38
27888;BME280;15237;49.608;7.170;2022-10-31T00:07:51;982.28;;;22.29;42.35
27888;BME280;15237;49.608;7.170;2022-10-31T00:08:31;982.30;;;22.29;42.32
27888;BME280;15237;49.608;7.170;2022-10-31T00:09:09;982.29;;;22.28;42.31
27888;BME280;15237;49.608;7.170;2022-10-31T00:09:47;982.31;;;22.27;42.36
27888;BME280;15237;49.608;7.170;2022-10-31T00:10:25;982.33;;;22.28;42.34
27888;BME280;15237;49.608;7.170;2022-10-31T00:11:08;982.31;;;22.27;42.37
27888;BME280;15237;49.608;7.170;2022-10-31T00:11:46;982.29;;;22.27;42.37
27888;BME280;15237;49.608;7.170;2022-10-31T00:12:23;982.31;;;22.27;42.34
27888;BME280;15237;49.608;7.170;2022-10-31T00:13:01;982.32;;;22.27;42.37
27888;BME280;15237;49.608;7.170;2022-10-31T00:13:41;982.31;;;22.28;42.38
27888;BME280;15237;49.608;7.170;2022-10-31T00:14:24;982.31;;;22.26;42.38
27888;BME280;15237;49.608;7.170;2022-10-31T00:15:05;982.31;;;22.26;42.40
27888;BME280;15237;49.608;7.170;2022-10-31T00:15:44;982.30;;;22.28;42.35
27888;BME280;15237;49.608;7.170;2022-10-31T00:16:23;982.30;;;22.28;42.36
27888;BME280;15237;49.608;7.170;2022-10-31T00:17:01;982.29;;;22.29;42.32
27888;BME280;15237;49.608;7.170;2022-10-31T00:17:40;982.30;;;22.29;42.32
27888;BME280;15237;49.608;7.170;2022-10-31T00:18:18;982.30;;;22.28;42.31
27888;BME280;15237;49.608;7.170;2022-10-31T00:18:58;982.28;;;22.28;42.33
27888;BME280;15237;49.608;7.170;2022-10-31T00:19:38;982.28;;;22.28;42.35
27888;BME280;15237;49.608;7.170;2022-10-31T00:20:16;982.27;;;22.28;42.30
27888;BME280;15237;49.608;7.170;2022-10-31T00:21:39;982.27;;;22.27;42.34
27888;BME280;15237;49.608;7.170;2022-10-31T00:22:16;982.28;;;22.28;42.32
27888;BME280;15237;49.608;7.170;2022-10-31T00:23:02;982.25;;;22.27;42.33
27888;BME280;15237;49.608;7.170;2022-10-31T00:23:42;982.26;;;22.27;42.35
27888;BME280;15237;49.608;7.170;2022-10-31T00:24:20;982.22;;;22.26;42.36
27888;BME280;15237;49.608;7.170;2022-10-31T00:24:57;982.23;;;22.26;42.36
27888;BME280;15237;49.608;7.170;2022-10-31T00:25:36;982.23;;;22.28;42.32
27888;BME280;15237;49.608;7.170;2022-10-31T00:26:15;982.23;;;22.26;42.35
27888;BME280;15237;49.608;7.170;2022-10-31T00:26:58;982.22;;;22.24;42.38
27888;BME280;15237;49.608;7.170;2022-10-31T00:27:35;982.26;;;22.24;42.40
27888;BME280;15237;49.608;7.170;2022-10-31T00:28:15;982.26;;;22.24;42.43
27888;BME280;15237;49.608;7.170;2022-10-31T00:28:53;982.26;;;22.23;42.40
27888;BME280;15237;49.608;7.170;2022-10-31T00:29:32;982.30;;;22.24;42.38
27888;BME280;15237;49.608;7.170;2022-10-31T00:30:11;982.28;;;22.24;42.40
27888;BME280;15237;49.608;7.170;2022-10-31T00:30:49;982.31;;;22.25;42.35
27888;BME280;15237;49.608;7.170;2022-10-31T00:31:27;982.30;;;22.25;42.39
27888;BME280;15237;49.608;7.170;2022-10-31T00:32:05;982.29;;;22.25;42.40
27888;BME280;15237;49.608;7.170;2022-10-31T00:32:42;982.32;;;22.26;42.35
27888;BME280;15237;49.608;7.170;2022-10-31T00:33:20;982.32;;;22.26;42.33
27888;BME280;15237;49.608;7.170;2022-10-31T00:34:00;982.31;;;22.28;42.32
27888;BME280;15237;49.608;7.170;2022-10-31T00:34:39;982.31;;;22.28;42.30
27888;BME280;15237;49.608;7.170;2022-10-31T00:35:16;982.31;;;22.28;42.28
27888;BME280;15237;49.608;7.170;2022-10-31T00:35:56;982.30;;;22.28;42.30
27888;BME280;15237;49.608;7.170;2022-10-31T00:36:34;982.31;;;22.28;42.32
27888;BME280;15237;49.608;7.170;2022-10-31T00:37:11;982.29;;;22.28;42.34
27888;BME280;15237;49.608;7.170;2022-10-31T00:37:51;982.29;;;22.28;42.34
27888;BME280;15237;49.608;7.170;2022-10-31T00:38:30;982.28;;;22.28;42.32
27888;BME280;15237;49.608;7.170;2022-10-31T00:39:08;982.28;;;22.30;42.26
27888;BME280;15237;49.608;7.170;2022-10-31T00:39:46;982.27;;;22.29;42.27
27888;BME280;15237;49.608;7.170;2022-10-31T00:40:24;982.26;;;22.30;42.24
27888;BME280;15237;49.608;7.170;2022-10-31T00:41:04;982.24;;;22.29;42.27
27888;BME280;15237;49.608;7.170;2022-10-31T00:41:41;982.25;;;22.30;42.24
27888;BME280;15237;49.608;7.170;2022-10-31T00:42:19;982.23;;;22.30;42.31
27888;BME280;15237;49.608;7.170;2022-10-31T00:42:57;982.24;;;22.29;42.24
27888;BME280;15237;49.608;7.170;2022-10-31T00:43:35;982.23;;;22.28;42.31
27888;BME280;15237;49.608;7.170;2022-10-31T00:44:17;982.25;;;22.30;42.24
27888;BME280;15237;49.608;7.170;2022-10-31T00:44:54;982.22;;;22.33;42.18
27888;BME280;15237;49.608;7.170;2022-10-31T00:45:32;982.23;;;22.36;42.15
27888;BME280;15237;49.608;7.170;2022-10-31T00:46:12;982.20;;;22.36;42.13
27888;BME280;15237;49.608;7.170;2022-10-31T00:46:50;982.20;;;22.34;42.19
27888;BME280;15237;49.608;7.170;2022-10-31T00:47:29;982.19;;;22.33;42.19
27888;BME280;15237;49.608;7.170;2022-10-31T00:48:07;982.19;;;22.35;42.13
27888;BME280;15237;49.608;7.170;2022-10-31T00:48:45;982.18;;;22.37;42.12
27888;BME280;15237;49.608;7.170;2022-10-31T00:49:24;982.16;;;22.37;42.04
27888;BME280;15237;49.608;7.170;2022-10-31T00:50:03;982.15;;;22.36;42.10
27888;BME280;15237;49.608;7.170;2022-10-31T00:50:41;982.15;;;22.38;42.05
27888;BME280;15237;49.608;7.170;2022-10-31T00:51:20;982.13;;;22.38;42.03
27888;BME280;15237;49.608;7.170;2022-10-31T00:51:57;982.12;;;22.37;42.13
27888;BME280;15237;49.608;7.170;2022-10-31T00:52:35;982.08;;;22.36;42.12
27888;BME280;15237;49.608;7.170;2022-10-31T00:53:13;982.09;;;22.37;42.06
27888;BME280;15237;49.608;7.170;2022-10-31T00:53:54;982.07;;;22.36;42.09
27888;BME280;15237;49.608;7.170;2022-10-31T00:54:32;982.06;;;22.36;42.10
27888;BME280;15237;49.608;7.170;2022-10-31T00:55:10;982.05;;;22.36;42.10
27888;BME280;15237;49.608;7.170;2022-10-31T00:55:49;982.08;;;22.39;42.07
27888;BME280;15237;49.608;7.170;2022-10-31T00:56:27;982.07;;;22.42;41.98
27888;BME280;15237;49.608;7.170;2022-10-31T00:57:05;982.09;;;22.45;41.92
27888;BME280;15237;49.608;7.170;2022-10-31T00:57:45;982.09;;;22.46;41.93
27888;BME280;15237;49.608;7.170;2022-10-31T00:58:23;982.07;;;22.44;41.98
27888;BME280;15237;49.608;7.170;2022-10-31T00:59:01;982.07;;;22.42;41.98
27888;BME280;15237;49.608;7.170;2022-10-31T00:59:40;982.08;;;22.40;42.01
27888;BME280;15237;49.608;7.170;2022-10-31T01:00:19;982.07;;;22.38;42.04
27888;BME280;15237;49.608;7.170;2022-10-31T01:00:57;982.06;;;22.36;42.06
27888;BME280;15237;49.608;7.170;2022-10-31T01:01:35;982.06;;;22.35;42.10
27888;BME280;15237;49.608;7.170;2022-10-31T01:02:13;982.07;;;22.35;42.12
27888;BME280;15237;49.608;7.170;2022-10-31T01:02:51;982.05;;;22.34;42.08
27888;BME280;15237;49.608;7.170;2022-10-31T01:03:30;982.06;;;22.35;42.10
27888;BME280;15237;49.608;7.170;2022-10-31T01:04:09;982.07;;;22.36;42.11
27888;BME280;15237;49.608;7.170;2022-10-31T01:04:47;982.07;;;22.36;42.07
27888;BME280;15237;49.608;7.170;2022-10-31T01:05:24;982.08;;;22.35;42.10
27888;BME280;15237;49.608;7.170;2022-10-31T01:06:41;982.08;;;22.36;42.09
27888;BME280;15237;49.608;7.170;2022-10-31T01:07:19;982.06;;;22.35;42.08
27888;BME280;15237;49.608;7.170;2022-10-31T01:08:00;982.07;;;22.34;42.11
27888;BME280;15237;49.608;7.170;2022-10-31T01:08:39;982.06;;;22.34;42.13
27888;BME280;15237;49.608;7.170;2022-10-31T01:09:17;982.08;;;22.37;42.05
27888;BME280;15237;49.608;7.170;2022-10-31T01:09:55;982.07;;;22.39;42.03
27888;BME280;15237;49.608;7.170;2022-10-31T01:10:33;982.06;;;22.38;42.04
27888;BME280;15237;49.608;7.170;2022-10-31T01:11:19;982.04;;;22.35;42.08
27888;BME280;15237;49.608;7.170;2022-10-31T01:11:59;982.00;;;22.34;42.12
27888;BME280;15237;49.608;7.170;2022-10-31T01:12:42;982.05;;;22.34;42.14
27888;BME280;15237;49.608;7.170;2022-10-31T01:13:23;982.02;;;22.31;42.21
27888;BME280;15237;49.608;7.170;2022-10-31T01:14:01;982.00;;;22.30;42.21
27888;BME280;15237;49.608;7.170;2022-10-31T01:14:42;982.01;;;22.28;42.25
27888;BME280;15237;49.608;7.170;2022-10-31T01:15:20;982.01;;;22.28;42.23
27888;BME280;15237;49.608;7.170;2022-10-31T01:16:00;982.01;;;22.29;42.19
27888;BME280;15237;49.608;7.170;2022-10-31T01:16:39;981.98;;;22.28;42.23
27888;BME280;15237;49.608;7.170;2022-10-31T01:17:17;982.03;;;22.27;42.20
27888;BME280;15237;49.608;7.170;2022-10-31T01:17:57;982.00;;;22.25;42.31
27888;BME280;15237;49.608;7.170;2022-10-31T01:18:35;982.03;;;22.25;42.30
27888;BME280;15237;49.608;7.170;2022-10-31T01:19:12;982.06;;;22.25;42.30
27888;BME280;15237;49.608;7.170;2022-10-31T01:19:52;982.05;;;22.25;42.29
27888;BME280;15237;49.608;7.170;2022-10-31T01:20:29;982.07;;;22.25;42.28
27888;BME280;15237;49.608;7.170;2022-10-31T01:21:09;982.04;;;22.25;42.26
27888;BME280;15237;49.608;7.170;2022-10-31T01:21:53;982.06;;;22.28;42.25
27888;BME280;15237;49.608;7.170;2022-10-31T01:22:32;982.06;;;22.29;42.23
27888;BME280;15237;49.608;7.170;2022-10-31T01:23:10;982.05;;;22.30;42.18
27888;BME280;15237;49.608;7.170;2022-10-31T01:23:49;982.05;;;22.29;42.19
27888;BME280;15237;49.608;7.170;2022-10-31T01:24:28;982.03;;;22.28;42.21
27888;BME280;15237;49.608;7.170;2022-10-31T01:25:06;982.04;;;22.28;42.18
27888;BME280;15237;49.608;7.170;2022-10-31T01:25:45;982.03;;;22.32;42.12
27888;BME280;15237;49.608;7.170;2022-10-31T01:26:31;982.04;;;22.37;42.05
27888;BME280;15237;49.608;7.170;2022-10-31T01:27:10;982.04;;;22.43;41.91
27888;BME280;15237;49.608;7.170;2022-10-31T01:27:49;982.05;;;22.47;41.81
27888;BME280;15237;49.608;7.170;2022-10-31T01:28:29;982.02;;;22.49;41.78
27888;BME280;15237;49.608;7.170;2022-10-31T01:29:12;982.02;;;22.47;41.81
27888;BME280;15237;49.608;7.170;2022-10-31T01:29:50;982.03;;;22.44;41.88
27888;BME280;15237;49.608;7.170;2022-10-31T01:30:29;982.03;;;22.40;41.97
27888;BME280;15237;49.608;7.170;2022-10-31T01:31:08;982.02;;;22.36;42.00
27888;BME280;15237;49.608;7.170;2022-10-31T01:31:46;982.02;;;22.34;42.07
27888;BME280;15237;49.608;7.170;2022-10-31T01:32:28;981.98;;;22.31;42.09
27888;BME280;15237;49.608;7.170;2022-10-31T01:33:07;981.97;;;22.30;42.17
27888;BME280;15237;49.608;7.170;2022-10-31T01:33:46;981.96;;;22.28;42.16
27888;BME280;15237;49.608;7.170;2022-10-31T01:34:24;981.96;;;22.30;42.16
27888;BME280;15237;49.608;7.170;2022-10-31T01:35:06;981.93;;;22.29;42.17
27888;BME280;15237;49.608;7.170;2022-10-31T01:35:44;981.91;;;22.28;42.17
27888;BME280;15237;49.608;7.170;2022-10-31T01:36:27;981.91;;;22.27;42.20
27888;BME280;15237;49.608;7.170;2022-10-31T01:37:04;981.89;;;22.28;42.20
27888;BME280;15237;49.608;7.170;2022-10-31T01:37:42;981.89;;;22.30;42.14
27888;BME280;15237;49.608;7.170;2022-10-31T01:38:20;981.90;;;22.30;42.11
27888;BME280;15237;49.608;7.170;2022-10-31T01:38:59;981.88;;;22.30;42.11
27888;BME280;15237;49.608;7.170;2022-10-31T01:39:38;981.88;;;22.30;42.13
27888;BME280;15237;49.608;7.170;2022-10-31T01:40:17;981.88;;;22.28;42.14
27888;BME280;15237;49.608;7.170;2022-10-31T01:40:55;981.88;;;22.27;42.18
27888;BME280;15237;49.608;7.170;2022-10-31T01:41:34;981.87;;;22.28;42.17
27888;BME280;15237;49.608;7.170;2022-10-31T01:42:18;981.87;;;22.28;42.18
27888;BME280;15237;49.608;7.170;2022-10-31T01:42:57;981.86;;;22.28;42.18
27888;BME280;15237;49.608;7.170;2022-10-31T01:44:59;981.88;;;22.25;42.23
27888;BME280;15237;49.608;7.170;2022-10-31T01:45:37;981.86;;;22.24;42.21
27888;BME280;15237;49.608;7.170;2022-10-31T01:47:43;981.89;;;22.27;42.16
27888;BME280;15237;49.608;7.170;2022-10-31T01:48:24;981.86;;;22.31;42.10
27888;BME280;15237;49.608;7.170;2022-10-31T01:49:09;981.90;;;22.38;41.96
27888;BME280;15237;49.608;7.170;2022-10-31T01:49:51;981.88;;;22.42;41.86
27888;BME280;15237;49.608;7.170;2022-10-31T01:50:32;981.87;;;22.41;41.93
27888;BME280;15237;49.608;7.170;2022-10-31T01:51:12;981.89;;;22.40;41.95
27888;BME280;15237;49.608;7.170;2022-10-31T01:52:38;981.88;;;22.36;42.00
27888;BME280;15237;49.608;7.170;2022-10-31T01:53:27;981.88;;;22.32;42.09
27888;BME280;15237;49.608;7.170;2022-10-31T01:54:08;981.88;;;22.31;42.06
27888;BME280;15237;49.608;7.170;2022-10-31T01:54:48;981.89;;;22.30;42.15
27888;BME280;15237;49.608;7.170;2022-10-31T01:55:33;981.87;;;22.30;42.14
27888;BME280;15237;49.608;7.170;2022-10-31T01:56:13;981.85;;;22.29;42.16
27888;BME280;15237;49.608;7.170;2022-10-31T01:56:52;981.85;;;22.27;42.15
27888;BME280;15237;49.608;7.170;2022-10-31T01:57:34;981.85;;;22.26;42.17
27888;BME280;15237;49.608;7.170;2022-10-31T01:58:22;981.88;;;22.28;42.16
27888;BME280;15237;49.608;7.170;2022-10-31T01:59:01;981.86;;;22.30;42.13
27888;BME280;15237;49.608;7.170;2022-10-31T01:59:43;981.88;;;22.30;42.11
27888;BME280;15237;49.608;7.170;2022-10-31T02:00:25;981.86;;;22.31;42.10
27888;BME280;15237;49.608;7.170;2022-10-31T02:01:03;981.87;;;22.31;42.08
27888;BME280;15237;49.608;7.170;2022-10-31T02:01:41;981.86;;;22.30;42.10
27888;BME280;15237;49.608;7.170;2022-10-31T02:02:20;981.86;;;22.27;42.15
27888;BME280;15237;49.608;7.170;2022-10-31T02:02:57;981.83;;;22.26;42.17
27888;BME280;15237;49.608;7.170;2022-10-31T02:03:35;981.82;;;22.26;42.16
27888;BME280;15237;49.608;7.170;2022-10-31T02:04:14;981.81;;;22.26;42.17
27888;BME280;15237;49.608;7.170;2022-10-31T02:04:53;981.80;;;22.25;42.19
27888;BME280;15237;49.608;7.170;2022-10-31T02:05:31;981.80;;;22.26;42.17
27888;BME280;15237;49.608;7.170;2022-10-31T02:06:14;981.82;;;22.26;42.16
27888;BME280;15237;49.608;7.170;2022-10-31T02:06:56;981.79;;;22.27;42.14
27888;BME280;15237;49.608;7.170;2022-10-31T02:08:20;981.78;;;22.26;42.17
27888;BME280;15237;49.608;7.170;2022-10-31T02:09:02;981.77;;;22.29;42.12
27888;BME280;15237;49.608;7.170;2022-10-31T02:09:42;981.75;;;22.30;42.08
27888;BME280;15237;49.608;7.170;2022-10-31T02:10:23;981.75;;;22.31;42.06
27888;BME280;15237;49.608;7.170;2022-10-31T02:11:01;981.75;;;22.30;42.10
27888;BME280;15237;49.608;7.170;2022-10-31T02:11:38;981.75;;;22.28;42.15
27888;BME280;15237;49.608;7.170;2022-10-31T02:12:18;981.75;;;22.28;42.17
27888;BME280;15237;49.608;7.170;2022-10-31T02:13:01;981.74;;;22.27;42.17
27888;BME280;15237;49.608;7.170;2022-10-31T02:13:41;981.74;;;22.26;42.16
27888;BME280;15237;49.608;7.170;2022-10-31T02:14:22;981.73;;;22.26;42.18
27888;BME280;15237;49.608;7.170;2022-10-31T02:15:00;981.74;;;22.25;42.17
27888;BME280;15237;49.608;7.170;2022-10-31T02:15:38;981.74;;;22.25;42.18
27888;BME280;15237;49.608;7.170;2022-10-31T02:16:22;981.72;;;22.24;42.19
27888;BME280;15237;49.608;7.170;2022-10-31T02:17:00;981.74;;;22.23;42.21
27888;BME280;15237;49.608;7.170;2022-10-31T02:17:37;981.75;;;22.23;42.21
27888;BME280;15237;49.608;7.170;2022-10-31T02:18:17;981.74;;;22.23;42.20
27888;BME280;15237;49.608;7.170;2022-10-31T02:18:56;981.74;;;22.23;42.22
27888;BME280;15237;49.608;7.170;2022-10-31T02:20:16;981.76;;;22.23;42.18
27888;BME280;15237;49.608;7.170;2022-10-31T02:21:01;981.76;;;22.22;42.22
27888;BME280;15237;49.608;7.170;2022-10-31T02:22:26;981.76;;;22.23;42.20
27888;BME280;15237;49.608;7.170;2022-10-31T02:23:16;981.76;;;22.23;42.18
27888;BME280;15237;49.608;7.170;2022-10-31T02:23:58;981.74;;;22.24;42.18
27888;BME280;15237;49.608;7.170;2022-10-31T02:30:22;981.73;;;22.19;42.25
27888;BME280;15237;49.608;7.170;2022-10-31T02:33:52;981.77;;;22.21;42.24
27888;BME280;15237;49.608;7.170;2022-10-31T02:34:38;981.73;;;22.23;42.22
27888;BME280;15237;49.608;7.170;2022-10-31T02:36:05;981.73;;;22.24;42.19
27888;BME280;15237;49.608;7.170;2022-10-31T02:38:57;981.71;;;22.23;42.19
27888;BME280;15237;49.608;7.170;2022-10-31T02:39:48;981.72;;;22.23;42.17
27888;BME280;15237;49.608;7.170;2022-10-31T02:41:56;981.72;;;22.24;42.14
27888;BME280;15237;49.608;7.170;2022-10-31T02:42:41;981.70;;;22.25;42.15
27888;BME280;15237;49.608;7.170;2022-10-31T02:43:21;981.70;;;22.23;42.16
27888;BME280;15237;49.608;7.170;2022-10-31T02:44:52;981.70;;;22.24;42.17
27888;BME280;15237;49.608;7.170;2022-10-31T02:45:26;981.68;;;22.24;42.17
27888;BME280;15237;49.608;7.170;2022-10-31T02:46:14;981.66;;;22.25;42.13
27888;BME280;15237;49.608;7.170;2022-10-31T02:46:57;981.65;;;22.24;42.12
27888;BME280;15237;49.608;7.170;2022-10-31T02:47:37;981.64;;;22.25;42.15
27888;BME280;15237;49.608;7.170;2022-10-31T02:48:19;981.64;;;22.25;42.18
27888;BME280;15237;49.608;7.170;2022-10-31T02:50:28;981.62;;;22.26;42.11
27888;BME280;15237;49.608;7.170;2022-10-31T02:51:08;981.59;;;22.25;42.15
27888;BME280;15237;49.608;7.170;2022-10-31T02:51:48;981.62;;;22.24;42.11
27888;BME280;15237;49.608;7.170;2022-10-31T02:52:28;981.62;;;22.22;42.21
27888;BME280;15237;49.608;7.170;2022-10-31T02:53:06;981.63;;;22.21;42.20
27888;BME280;15237;49.608;7.170;2022-10-31T02:53:44;981.64;;;22.20;42.22
27888;BME280;15237;49.608;7.170;2022-10-31T02:54:23;981.64;;;22.20;42.23
27888;BME280;15237;49.608;7.170;2022-10-31T02:55:51;981.64;;;22.21;42.19
27888;BME280;15237;49.608;7.170;2022-10-31T02:56:34;981.66;;;22.22;42.19
27888;BME280;15237;49.608;7.170;2022-10-31T02:57:12;981.64;;;22.22;42.19
27888;BME280;15237;49.608;7.170;2022-10-31T02:57:51;981.63;;;22.22;42.20
27888;BME280;15237;49.608;7.170;2022-10-31T02:58:35;981.63;;;22.22;42.19
27888;BME280;15237;49.608;7.170;2022-10-31T02:59:15;981.62;;;22.22;42.23
27888;BME280;15237;49.608;7.170;2022-10-31T02:59:56;981.63;;;22.22;42.20
27888;BME280;15237;49.608;7.170;2022-10-31T03:00:41;981.63;;;22.23;42.17
27888;BME280;15237;49.608;7.170;2022-10-31T03:05:36;981.64;;;22.18;42.26
27888;BME280;15237;49.608;7.170;2022-10-31T03:06:20;981.65;;;22.20;42.19
27888;BME280;15237;49.608;7.170;2022-10-31T03:07:46;981.62;;;22.22;42.16
27888;BME280;15237;49.608;7.170;2022-10-31T03:09:55;981.64;;;22.20;42.22
27888;BME280;15237;49.608;7.170;2022-10-31T03:11:14;981.65;;;22.18;42.26
27888;BME280;15237;49.608;7.170;2022-10-31T03:12:15;981.65;;;22.20;42.21
27888;BME280;15237;49.608;7.170;2022-10-31T03:12:47;981.65;;;22.20;42.22
27888;BME280;15237;49.608;7.170;2022-10-31T03:14:06;981.63;;;22.21;42.20
27888;BME280;15237;49.608;7.170;2022-10-31T03:16:51;981.67;;;22.21;42.19
27888;BME280;15237;49.608;7.170;2022-10-31T03:17:36;981.65;;;22.21;42.18
27888;BME280;15237;49.608;7.170;2022-10-31T03:18:20;981.66;;;22.21;42.20
27888;BME280;15237;49.608;7.170;2022-10-31T03:19:00;981.65;;;22.22;42.16
27888;BME280;15237;49.608;7.170;2022-10-31T03:19:45;981.66;;;22.22;42.13
27888;BME280;15237;49.608;7.170;2022-10-31T03:20:30;981.63;;;22.23;42.10
27888;BME280;15237;49.608;7.170;2022-10-31T03:21:14;981.62;;;22.22;42.15
27888;BME280;15237;49.608;7.170;2022-10-31T03:21:55;981.63;;;22.21;42.19
27888;BME280;15237;49.608;7.170;2022-10-31T03:22:37;981.63;;;22.20;42.20
27888;BME280;15237;49.608;7.170;2022-10-31T03:23:18;981.64;;;22.19;42.22
27888;BME280;15237;49.608;7.170;2022-10-31T03:23:58;981.63;;;22.19;42.18
27888;BME280;15237;49.608;7.170;2022-10-31T03:24:38;981.65;;;22.20;42.23
27888;BME280;15237;49.608;7.170;2022-10-31T03:25:21;981.63;;;22.19;42.19
27888;BME280;15237;49.608;7.170;2022-10-31T03:26:00;981.63;;;22.21;42.17
27888;BME280;15237;49.608;7.170;2022-10-31T03:26:44;981.64;;;22.21;42.16
27888;BME280;15237;49.608;7.170;2022-10-31T03:27:25;981.65;;;22.21;42.13
27888;BME280;15237;49.608;7.170;2022-10-31T03:28:04;981.64;;;22.21;42.14
27888;BME280;15237;49.608;7.170;2022-10-31T03:28:45;981.65;;;22.22;42.14
27888;BME280;15237;49.608;7.170;2022-10-31T03:29:24;981.66;;;22.22;42.18
27888;BME280;15237;49.608;7.170;2022-10-31T03:30:05;981.65;;;22.21;42.15
27888;BME280;15237;49.608;7.170;2022-10-31T03:30:46;981.65;;;22.21;42.17
27888;BME280;15237;49.608;7.170;2022-10-31T03:31:29;981.66;;;22.20;42.19
27888;BME280;15237;49.608;7.170;2022-10-31T03:32:13;981.64;;;22.21;42.17
27888;BME280;15237;49.608;7.170;2022-10-31T03:32:55;981.66;;;22.20;42.15
27888;BME280;15237;49.608;7.170;2022-10-31T03:33:34;981.65;;;22.18;42.16
27888;BME280;15237;49.608;7.170;2022-10-31T03:34:14;981.65;;;22.17;42.22
27888;BME280;15237;49.608;7.170;2022-10-31T03:34:53;981.65;;;22.18;42.19
27888;BME280;15237;49.608;7.170;2022-10-31T03:35:34;981.65;;;22.19;42.20
27888;BME280;15237;49.608;7.170;2022-10-31T03:36:14;981.65;;;22.21;42.16
27888;BME280;15237;49.608;7.170;2022-10-31T03:36:54;981.67;;;22.21;42.15
27888;BME280;15237;49.608;7.170;2022-10-31T03:37:35;981.65;;;22.20;42.16
27888;BME280;15237;49.608;7.170;2022-10-31T03:38:13;981.65;;;22.21;42.15
27888;BME280;15237;49.608;7.170;2022-10-31T03:38:54;981.64;;;22.22;42.09
27888;BME280;15237;49.608;7.170;2022-10-31T03:39:32;981.64;;;22.22;42.11
27888;BME280;15237;49.608;7.170;2022-10-31T03:40:12;981.61;;;22.22;42.15
27888;BME280;15237;49.608;7.170;2022-10-31T03:40:52;981.62;;;22.22;42.13
27888;BME280;15237;49.608;7.170;2022-10-31T03:41:34;981.62;;;22.22;42.13
27888;BME280;15237;49.608;7.170;2022-10-31T03:42:18;981.60;;;22.22;42.13
27888;BME280;15237;49.608;7.170;2022-10-31T03:43:03;981.59;;;22.22;42.10
27888;BME280;15237;49.608;7.170;2022-10-31T03:43:42;981.60;;;22.25;42.04
27888;BME280;15237;49.608;7.170;2022-10-31T03:44:22;981.60;;;22.29;41.94
27888;BME280;15237;49.608;7.170;2022-10-31T03:45:03;981.61;;;22.32;41.94
27888;BME280;15237;49.608;7.170;2022-10-31T03:45:44;981.60;;;22.34;41.85
27888;BME280;15237;49.608;7.170;2022-10-31T03:46:23;981.61;;;22.34;41.85
27888;BME280;15237;49.608;7.170;2022-10-31T03:47:02;981.61;;;22.33;41.87
27888;BME280;15237;49.608;7.170;2022-10-31T03:47:42;981.62;;;22.31;41.90
27888;BME280;15237;49.608;7.170;2022-10-31T03:48:20;981.62;;;22.30;41.96
27888;BME280;15237;49.608;7.170;2022-10-31T03:49:00;981.60;;;22.27;41.99
27888;BME280;15237;49.608;7.170;2022-10-31T03:49:39;981.60;;;22.24;42.08
27888;BME280;15237;49.608;7.170;2022-10-31T03:50:18;981.58;;;22.22;42.10
27888;BME280;15237;49.608;7.170;2022-10-31T03:52:28;981.58;;;22.24;42.07
27888;BME280;15237;49.608;7.170;2022-10-31T03:53:09;981.59;;;22.30;41.95
27888;BME280;15237;49.608;7.170;2022-10-31T03:54:51;981.59;;;22.40;41.74
27888;BME280;15237;49.608;7.170;2022-10-31T03:55:19;981.59;;;22.42;41.71
27888;BME280;15237;49.608;7.170;2022-10-31T03:56:02;981.60;;;22.40;41.72
27888;BME280;15237;49.608;7.170;2022-10-31T03:56:45;981.57;;;22.37;41.77
27888;BME280;15237;49.608;7.170;2022-10-31T03:58:12;981.58;;;22.32;41.89
27888;BME280;15237;49.608;7.170;2022-10-31T03:59:34;981.56;;;22.29;41.94
27888;BME280;15237;49.608;7.170;2022-10-31T04:00:14;981.59;;;22.28;41.92
27888;BME280;15237;49.608;7.170;2022-10-31T04:00:55;981.58;;;22.28;41.96
27888;BME280;15237;49.608;7.170;2022-10-31T04:01:34;981.58;;;22.26;42.03
27888;BME280;15237;49.608;7.170;2022-10-31T04:02:15;981.59;;;22.27;41.99
27888;BME280;15237;49.608;7.170;2022-10-31T04:02:58;981.58;;;22.26;41.98
27888;BME280;15237;49.608;7.170;2022-10-31T04:03:39;981.58;;;22.24;41.99
27888;BME280;15237;49.608;7.170;2022-10-31T04:04:17;981.60;;;22.24;42.04
27888;BME280;15237;49.608;7.170;2022-10-31T04:04:59;981.60;;;22.23;42.03
27888;BME280;15237;49.608;7.170;2022-10-31T04:05:37;981.60;;;22.21;42.09
27888;BME280;15237;49.608;7.170;2022-10-31T04:06:20;981.62;;;22.20;42.11
27888;BME280;15237;49.608;7.170;2022-10-31T04:07:00;981.63;;;22.19;42.15
27888;BME280;15237;49.608;7.170;2022-10-31T04:07:40;981.64;;;22.18;42.16
27888;BME280;15237;49.608;7.170;2022-10-31T04:08:20;981.65;;;22.19;42.11
27888;BME280;15237;49.608;7.170;2022-10-31T04:09:02;981.66;;;22.19;42.15
27888;BME280;15237;49.608;7.170;2022-10-31T04:09:42;981.65;;;22.18;42.15
27888;BME280;15237;49.608;7.170;2022-10-31T04:10:22;981.68;;;22.18;42.17
27888;BME280;15237;49.608;7.170;2022-10-31T04:11:02;981.68;;;22.17;42.17
27888;BME280;15237;49.608;7.170;2022-10-31T04:11:46;981.69;;;22.17;42.19
27888;BME280;15237;49.608;7.170;2022-10-31T04:12:26;981.68;;;22.16;42.18
27888;BME280;15237;49.608;7.170;2022-10-31T04:13:06;981.69;;;22.18;42.14
27888;BME280;15237;49.608;7.170;2022-10-31T04:13:46;981.70;;;22.20;42.11
27888;BME280;15237;49.608;7.170;2022-10-31T04:14:30;981.71;;;22.22;42.02